Aviation Digital Data Service (ADDS)

Output produced by METARs form (1630 UTC 23 February 2017)
found at http://aviationweather.gov/adds/metars/
 
KAND 231132Z 2312/2412 04005KT P6SM FEW060 
     FM231600 07005KT P6SM SCT080 
     FM240700 07003KT P6SM BKN025 
     FM240800 08003KT 1 1/2SM BR BKN015